Time;durP1;ratioP1;P1;durP2;ratioP2;P2;SDS_P1;SDS_P2;PMS_P1;PMS_P2;Temp;Humidity;BMP_temperature;BMP_pressure;BME280_temperature;BME280_humidity;BME280_pressure;Samples;Min_cycle;Max_cycle;Signal;HPM_P1;HPM_P2
2024/02/29 00:00:55;;;;;;;3.22;3.00;;;4.60;99.90;;;;;;5039852;28;20204;-80
2024/02/29 00:03:22;;;;;;;3.45;3.25;;;4.50;99.90;;;;;;5040079;28;20208;-81
2024/02/29 00:05:50;;;;;;;4.03;3.70;;;4.50;99.90;;;;;;5040278;28;20211;-80
2024/02/29 00:08:16;;;;;;;4.40;3.83;;;4.40;99.90;;;;;;5049160;28;20538;-83
2024/02/29 00:10:44;;;;;;;8.75;7.50;;;4.50;99.90;;;;;;5055204;28;20310;-79
2024/02/29 00:13:11;;;;;;;5.38;3.45;;;4.50;99.90;;;;;;5029693;28;20203;-80
2024/02/29 00:15:38;;;;;;;2.05;1.92;;;4.50;99.90;;;;;;5044559;28;20243;-79
2024/02/29 00:18:07;;;;;;;3.55;3.35;;;4.50;99.90;;;;;;5049823;28;20196;-81
2024/02/29 00:20:35;;;;;;;0.95;0.95;;;4.50;99.90;;;;;;5028329;28;20299;-80
2024/02/29 00:23:02;;;;;;;3.70;1.95;;;4.40;99.90;;;;;;5032731;28;20252;-79
2024/02/29 00:25:29;;;;;;;5.03;4.57;;;4.40;99.90;;;;;;5038851;28;20280;-79
2024/02/29 00:27:57;;;;;;;6.45;3.15;;;4.40;99.90;;;;;;5029894;28;20284;-78
2024/02/29 00:30:24;;;;;;;4.95;4.45;;;4.40;99.90;;;;;;5037243;28;20232;-79
2024/02/29 00:32:51;;;;;;;2.22;2.13;;;4.30;99.90;;;;;;5038963;28;20239;-79
2024/02/29 00:35:21;;;;;;;2.95;2.85;;;4.40;99.90;;;;;;5067367;28;20188;-79
2024/02/29 00:37:48;;;;;;;23.52;6.72;;;4.40;99.90;;;;;;5046567;28;20256;-80
2024/02/29 00:40:15;;;;;;;5.15;2.72;;;4.50;99.90;;;;;;5045284;28;20278;-80
2024/02/29 00:42:42;;;;;;;7.70;3.55;;;4.40;99.90;;;;;;5035960;28;20215;-79
2024/02/29 00:45:09;;;;;;;4.25;4.00;;;4.40;99.90;;;;;;5050411;28;20397;-78
2024/02/29 00:47:36;;;;;;;4.95;2.92;;;4.30;99.90;;;;;;5037720;28;20245;-78
2024/02/29 00:50:03;;;;;;;5.57;5.00;;;4.30;99.90;;;;;;5048700;28;20225;-79
2024/02/29 00:52:31;;;;;;;1.98;1.88;;;4.30;99.90;;;;;;5032846;28;20437;-82
2024/02/29 00:54:58;;;;;;;7.03;3.58;;;4.30;99.90;;;;;;5034573;28;20201;-81
2024/02/29 00:57:25;;;;;;;3.38;3.00;;;4.30;99.90;;;;;;5039625;28;20200;-81
2024/02/29 00:59:52;;;;;;;1.42;1.42;;;4.10;99.90;;;;;;5036019;28;20272;-82
2024/02/29 01:02:19;;;;;;;2.97;2.85;;;4.30;99.90;;;;;;5040200;28;20264;-80
2024/02/29 01:04:46;;;;;;;11.75;6.80;;;4.30;99.90;;;;;;5039723;28;20215;-79
2024/02/29 01:07:13;;;;;;;3.55;2.67;;;4.30;99.90;;;;;;5044630;28;20279;-80
2024/02/29 01:09:40;;;;;;;5.25;4.93;;;4.30;99.90;;;;;;5033187;28;20301;-83
2024/02/29 01:12:07;;;;;;;1.35;1.35;;;4.30;99.90;;;;;;5043300;28;20209;-80
2024/02/29 01:14:34;;;;;;;4.03;3.80;;;4.30;99.90;;;;;;5045790;28;20207;-79
2024/02/29 01:17:01;;;;;;;4.05;3.70;;;4.30;99.90;;;;;;5054808;28;20205;-80
2024/02/29 01:19:28;;;;;;;1.75;1.65;;;4.30;99.90;;;;;;5040068;28;20292;-80
2024/02/29 01:21:55;;;;;;;4.13;3.90;;;4.40;99.90;;;;;;5033064;28;20200;-81
2024/02/29 01:24:24;;;;;;;2.45;1.60;;;4.20;99.90;;;;;;5046526;28;20208;-80
2024/02/29 01:26:51;;;;;;;4.85;4.45;;;4.20;99.90;;;;;;5038091;28;20272;-80
2024/02/29 01:29:18;;;;;;;3.53;3.05;;;4.30;99.90;;;;;;5038167;28;20232;-80
2024/02/29 01:31:45;;;;;;;2.95;2.80;;;4.30;99.90;;;;;;5034270;28;20197;-80
2024/02/29 01:34:12;;;;;;;4.78;4.43;;;4.40;99.90;;;;;;5032386;28;20223;-81
2024/02/29 01:36:42;;;;;;;3.15;2.95;;;4.50;99.90;;;;;;5045406;28;20206;-80
2024/02/29 01:39:09;;;;;;;7.47;2.70;;;4.30;99.90;;;;;;5039826;28;20393;-84
2024/02/29 01:41:36;;;;;;;2.95;2.75;;;4.40;99.90;;;;;;5034062;28;20645;-81
2024/02/29 01:44:04;;;;;;;4.47;1.88;;;4.40;99.90;;;;;;5037981;28;20193;-82
2024/02/29 01:46:31;;;;;;;6.35;3.72;;;4.40;99.90;;;;;;5054651;28;20235;-82
2024/02/29 01:49:00;;;;;;;5.82;5.32;;;4.40;99.90;;;;;;5048145;28;20263;-82
2024/02/29 01:51:28;;;;;;;3.42;3.22;;;4.30;99.90;;;;;;5051465;28;20199;-81
2024/02/29 01:53:55;;;;;;;9.25;3.42;;;4.30;99.90;;;;;;5046396;28;20243;-83
2024/02/29 01:56:22;;;;;;;1.05;1.02;;;4.40;99.90;;;;;;5043585;28;20231;-81
2024/02/29 01:58:49;;;;;;;3.97;3.65;;;4.40;99.90;;;;;;5031662;28;20196;-80
2024/02/29 02:01:16;;;;;;;7.82;7.10;;;4.60;99.90;;;;;;5034446;28;20205;-80
2024/02/29 02:03:43;;;;;;;3.28;2.60;;;4.50;99.90;;;;;;5056544;28;20259;-79
2024/02/29 02:06:11;;;;;;;4.25;2.35;;;4.50;99.90;;;;;;5039698;28;20721;-81
2024/02/29 02:08:37;;;;;;;4.15;3.85;;;4.50;99.90;;;;;;5041762;28;20545;-80
2024/02/29 02:11:05;;;;;;;2.83;2.60;;;4.60;99.90;;;;;;5040739;28;20287;-79
2024/02/29 02:13:31;;;;;;;2.28;2.15;;;4.50;99.90;;;;;;5053142;28;20219;-80
2024/02/29 02:16:00;;;;;;;1.17;1.17;;;4.40;99.90;;;;;;5044952;28;20236;-82
2024/02/29 02:18:27;;;;;;;4.07;3.80;;;4.40;99.90;;;;;;5043389;28;20208;-79
2024/02/29 02:20:54;;;;;;;2.13;2.03;;;4.50;99.90;;;;;;5046867;28;20205;-78
2024/02/29 02:23:21;;;;;;;2.63;2.50;;;4.40;99.90;;;;;;5047420;28;20208;-81
2024/02/29 02:25:51;;;;;;;2.08;1.98;;;4.50;99.90;;;;;;5051532;28;20242;-80
2024/02/29 02:28:18;;;;;;;7.03;4.10;;;4.50;99.90;;;;;;5046295;28;20196;-80
2024/02/29 02:30:46;;;;;;;2.33;2.22;;;4.40;99.90;;;;;;5039811;28;20568;-80
2024/02/29 02:33:14;;;;;;;7.65;6.32;;;4.40;99.90;;;;;;5036739;28;20485;-79
2024/02/29 02:35:41;;;;;;;3.35;3.08;;;4.40;99.90;;;;;;5042769;28;20209;-80
2024/02/29 02:38:08;;;;;;;1.23;1.23;;;4.40;99.90;;;;;;5030559;28;20460;-79
2024/02/29 02:40:36;;;;;;;5.93;5.47;;;4.50;99.90;;;;;;5050089;28;20293;-79
2024/02/29 02:43:03;;;;;;;6.65;3.35;;;4.50;99.90;;;;;;5046751;28;20228;-80
2024/02/29 02:45:31;;;;;;;1.02;1.02;;;4.40;99.90;;;;;;5036788;28;20272;-79
2024/02/29 02:47:58;;;;;;;3.13;2.97;;;4.40;99.90;;;;;;5028545;28;20205;-79
2024/02/29 02:50:25;;;;;;;3.90;3.60;;;4.40;99.90;;;;;;5034017;28;20279;-81
2024/02/29 02:52:52;;;;;;;2.15;2.05;;;4.40;99.90;;;;;;5046914;28;20215;-80
2024/02/29 02:55:19;;;;;;;3.70;1.95;;;4.40;99.90;;;;;;5049496;28;20239;-80
2024/02/29 02:57:46;;;;;;;5.60;5.15;;;4.40;99.90;;;;;;5045973;28;20199;-80
2024/02/29 03:00:21;;;;;;;5.47;2.40;;;4.50;99.90;;;;;;5041588;28;20242;-79
2024/02/29 03:02:48;;;;;;;2.13;2.03;;;4.50;99.90;;;;;;5040983;28;20501;-78
2024/02/29 03:05:15;;;;;;;2.15;2.05;;;4.50;99.90;;;;;;5028184;28;20268;-80
2024/02/29 03:07:42;;;;;;;3.60;2.33;;;4.50;99.90;;;;;;5042785;28;20273;-78
2024/02/29 03:10:11;;;;;;;7.28;6.70;;;4.60;99.90;;;;;;5048277;28;20228;-78
2024/02/29 03:12:38;;;;;;;2.03;1.88;;;4.50;99.90;;;;;;5039676;28;20236;-80
2024/02/29 03:15:06;;;;;;;5.53;5.07;;;4.50;99.90;;;;;;5040506;28;20238;-81
2024/02/29 03:17:33;;;;;;;7.10;6.65;;;4.50;99.90;;;;;;5043221;28;20234;-79
2024/02/29 03:20:00;;;;;;;8.80;4.35;;;4.50;99.90;;;;;;5022532;28;20275;-79
2024/02/29 03:22:27;;;;;;;4.78;4.05;;;4.50;99.90;;;;;;5043214;28;20275;-81
2024/02/29 03:24:56;;;;;;;4.55;4.07;;;4.40;99.90;;;;;;5050111;28;20319;-79
2024/02/29 03:27:24;;;;;;;9.15;5.85;;;4.30;99.90;;;;;;5056036;28;20197;-81
2024/02/29 03:29:52;;;;;;;4.03;3.72;;;4.30;99.90;;;;;;5057546;28;20597;-78
2024/02/29 03:32:19;;;;;;;4.00;3.78;;;4.30;99.90;;;;;;5057756;28;20184;-86
2024/02/29 03:34:46;;;;;;;2.20;2.10;;;4.30;99.90;;;;;;5050066;28;20207;-80
2024/02/29 03:37:13;;;;;;;4.93;4.63;;;4.30;99.90;;;;;;5050198;28;20210;-81
2024/02/29 03:39:40;;;;;;;10.50;5.70;;;4.30;99.90;;;;;;5054675;28;20208;-81
2024/02/29 03:42:07;;;;;;;5.13;3.65;;;4.30;99.90;;;;;;5045960;28;20197;-81
2024/02/29 03:44:41;;;;;;;5.82;4.20;;;4.30;99.90;;;;;;5035773;28;20209;-82
2024/02/29 03:47:10;;;;;;;2.63;2.50;;;4.20;99.90;;;;;;5045859;28;20211;-80
2024/02/29 03:49:37;;;;;;;6.03;5.57;;;4.40;99.90;;;;;;5049442;28;20259;-82
2024/02/29 03:52:04;;;;;;;4.40;3.95;;;4.40;99.90;;;;;;5049050;28;20266;-82
2024/02/29 03:54:32;;;;;;;2.97;2.88;;;4.30;99.90;;;;;;5038079;28;20232;-82
2024/02/29 03:56:59;;;;;;;4.75;3.60;;;4.30;99.90;;;;;;5050517;28;20209;-82
2024/02/29 03:59:26;;;;;;;6.80;6.13;;;4.30;99.90;;;;;;5041088;28;20242;-81
2024/02/29 04:01:53;;;;;;;2.30;2.10;;;4.30;99.90;;;;;;5033982;28;20507;-81
2024/02/29 04:04:21;;;;;;;3.33;3.13;;;4.20;99.90;;;;;;5051801;28;20204;-82
2024/02/29 04:06:48;;;;;;;5.50;5.18;;;4.20;99.90;;;;;;5057177;28;20275;-82
2024/02/29 04:09:17;;;;;;;5.15;4.85;;;4.40;99.90;;;;;;5054103;28;20204;-84
2024/02/29 04:11:45;;;;;;;4.25;3.90;;;4.30;99.90;;;;;;5041306;28;20326;-80
2024/02/29 04:14:11;;;;;;;5.80;4.75;;;4.20;99.90;;;;;;5048787;28;20196;-80
2024/02/29 04:16:39;;;;;;;2.67;2.53;;;4.20;99.90;;;;;;5036155;28;20707;-80
2024/02/29 04:19:06;;;;;;;18.63;6.57;;;4.10;99.90;;;;;;5041275;28;20220;-82
2024/02/29 04:21:34;;;;;;;5.15;4.85;;;4.20;99.90;;;;;;5054705;28;20208;-80
2024/02/29 04:24:02;;;;;;;3.60;3.17;;;4.30;99.90;;;;;;5043376;28;20283;-81
2024/02/29 04:26:29;;;;;;;2.60;2.40;;;4.20;99.90;;;;;;5042092;28;20238;-81
2024/02/29 04:28:57;;;;;;;3.67;3.38;;;4.20;99.90;;;;;;5049860;28;20271;-83
2024/02/29 04:31:24;;;;;;;2.38;2.28;;;4.20;99.90;;;;;;5049807;28;20466;-82
2024/02/29 04:33:51;;;;;;;3.00;2.90;;;4.20;99.90;;;;;;5044745;28;20235;-79
2024/02/29 04:36:19;;;;;;;18.10;4.30;;;4.10;99.90;;;;;;5042086;28;20227;-80
2024/02/29 04:38:46;;;;;;;4.70;3.20;;;4.20;99.90;;;;;;5048369;28;20553;-80
2024/02/29 04:41:13;;;;;;;7.07;6.38;;;4.20;99.90;;;;;;5034876;28;20215;-82
2024/02/29 04:43:40;;;;;;;7.70;6.97;;;4.20;99.90;;;;;;5039768;28;20398;-82
2024/02/29 04:46:08;;;;;;;3.75;3.53;;;4.20;99.90;;;;;;5048221;28;20255;-80
2024/02/29 04:48:35;;;;;;;5.65;5.30;;;4.30;99.90;;;;;;5040635;28;20209;-80
2024/02/29 04:51:04;;;;;;;10.27;4.03;;;4.30;99.90;;;;;;5036512;28;20282;-81
2024/02/29 04:53:31;;;;;;;6.20;5.20;;;4.30;99.90;;;;;;5027509;28;20209;-80
2024/02/29 04:55:59;;;;;;;6.40;5.90;;;4.30;99.90;;;;;;5037611;28;20211;-78
2024/02/29 04:58:27;;;;;;;11.50;6.55;;;4.30;99.90;;;;;;5042489;28;20560;-82
2024/02/29 05:00:55;;;;;;;4.55;3.28;;;4.30;99.90;;;;;;5037135;28;20208;-81
2024/02/29 05:03:22;;;;;;;3.70;2.67;;;4.30;99.90;;;;;;5047227;28;20202;-81
2024/02/29 05:05:49;;;;;;;4.00;3.42;;;4.30;99.90;;;;;;5057409;28;20456;-80
2024/02/29 05:08:16;;;;;;;3.03;2.88;;;4.30;99.90;;;;;;5041907;28;20272;-81
2024/02/29 05:10:43;;;;;;;4.93;4.07;;;4.30;99.90;;;;;;5037022;28;20544;-80
2024/02/29 05:13:10;;;;;;;3.42;3.22;;;4.40;99.90;;;;;;5053374;28;20272;-82
2024/02/29 05:15:39;;;;;;;5.10;3.22;;;4.30;99.90;;;;;;5042205;28;20465;-80
2024/02/29 05:18:09;;;;;;;8.43;4.60;;;4.30;99.90;;;;;;5047225;28;20218;-80
2024/02/29 05:20:36;;;;;;;4.30;3.40;;;4.30;99.90;;;;;;5047238;28;20210;-80
2024/02/29 05:23:04;;;;;;;6.10;5.60;;;4.30;99.90;;;;;;5043838;28;20211;-80
2024/02/29 05:25:31;;;;;;;8.02;4.82;;;4.30;99.90;;;;;;5045517;28;20209;-79
2024/02/29 05:27:58;;;;;;;4.00;3.75;;;4.30;99.90;;;;;;5046913;28;20239;-80
2024/02/29 05:30:25;;;;;;;4.15;3.85;;;4.20;99.90;;;;;;5057835;28;20480;-81
2024/02/29 05:32:52;;;;;;;1.45;1.40;;;4.30;99.90;;;;;;5042541;28;20204;-81
2024/02/29 05:35:22;;;;;;;2.90;2.72;;;4.30;99.90;;;;;;5042905;28;20204;-79
2024/02/29 05:37:49;;;;;;;5.38;4.50;;;4.30;99.90;;;;;;5054354;28;20228;-81
2024/02/29 05:40:16;;;;;;;4.30;3.90;;;4.30;99.90;;;;;;5039572;28;20197;-80
2024/02/29 05:42:44;;;;;;;3.53;3.33;;;4.40;99.90;;;;;;5036642;28;20552;-82
2024/02/29 05:45:12;;;;;;;4.07;3.80;;;4.30;99.90;;;;;;5050623;28;20207;-81
2024/02/29 05:47:39;;;;;;;7.20;6.20;;;4.40;99.90;;;;;;5044746;28;20276;-80
2024/02/29 05:50:07;;;;;;;5.28;4.75;;;4.40;99.90;;;;;;5044513;28;20241;-81
2024/02/29 05:52:36;;;;;;;0.73;0.73;;;4.40;99.90;;;;;;5040056;28;20215;-80
2024/02/29 05:55:04;;;;;;;2.72;2.53;;;4.50;99.90;;;;;;5039973;28;20200;-81
2024/02/29 05:57:31;;;;;;;4.28;3.97;;;4.50;99.90;;;;;;5040654;28;20641;-82
2024/02/29 06:00:00;;;;;;;2.75;2.65;;;4.50;99.90;;;;;;5038306;28;20258;-83
2024/02/29 06:02:28;;;;;;;3.92;3.67;;;4.40;99.90;;;;;;5038018;28;20204;-83
2024/02/29 06:04:55;;;;;;;2.35;2.25;;;4.60;99.90;;;;;;5049179;28;20200;-82
2024/02/29 06:07:22;;;;;;;11.00;7.80;;;4.60;99.90;;;;;;5055542;28;20283;-87
2024/02/29 06:09:49;;;;;;;10.63;5.43;;;4.50;99.90;;;;;;5066402;28;20216;-86
2024/02/29 06:12:16;;;;;;;2.90;2.80;;;4.50;99.90;;;;;;5059012;28;20212;-83
2024/02/29 06:14:44;;;;;;;5.50;3.95;;;4.50;99.90;;;;;;5055204;28;20373;-81
2024/02/29 06:17:11;;;;;;;2.65;2.55;;;4.50;99.90;;;;;;5034951;28;20327;-82
2024/02/29 06:19:40;;;;;;;13.63;4.60;;;4.60;99.90;;;;;;5051089;28;20249;-83
2024/02/29 06:22:08;;;;;;;10.93;5.95;;;4.70;99.90;;;;;;5044299;28;20224;-85
2024/02/29 06:24:36;;;;;;;5.10;3.55;;;4.60;99.90;;;;;;5044937;28;20207;-83
2024/02/29 06:27:03;;;;;;;4.80;4.47;;;4.60;99.90;;;;;;5045785;28;20222;-79
2024/02/29 06:29:30;;;;;;;2.78;2.58;;;4.50;99.90;;;;;;5058087;28;20206;-80
2024/02/29 06:31:57;;;;;;;2.88;2.47;;;4.40;99.90;;;;;;5056140;28;20232;-79
2024/02/29 06:34:24;;;;;;;7.47;4.05;;;4.60;99.90;;;;;;5047913;28;20197;-80
2024/02/29 06:36:51;;;;;;;7.47;6.90;;;4.70;99.90;;;;;;5060143;28;20203;-81
2024/02/29 06:39:19;;;;;;;2.95;2.75;;;4.70;99.90;;;;;;5033096;28;20208;-79
2024/02/29 06:41:46;;;;;;;7.95;6.40;;;4.60;99.90;;;;;;5050014;28;20203;-80
2024/02/29 06:44:13;;;;;;;9.55;6.85;;;4.50;99.90;;;;;;5048975;28;20239;-82
2024/02/29 06:46:41;;;;;;;3.40;3.20;;;4.70;99.90;;;;;;5048056;28;20307;-81
2024/02/29 06:49:08;;;;;;;8.02;4.38;;;4.80;99.90;;;;;;5041418;28;20196;-81
2024/02/29 06:51:35;;;;;;;7.00;6.38;;;4.80;99.90;;;;;;5057465;28;20235;-81
2024/02/29 06:54:02;;;;;;;8.82;4.13;;;4.60;99.90;;;;;;5054362;28;20204;-81
2024/02/29 06:56:31;;;;;;;12.52;5.40;;;4.80;99.90;;;;;;5054876;28;20271;-81
2024/02/29 06:58:58;;;;;;;5.30;4.50;;;4.70;99.90;;;;;;5049180;28;20234;-83
2024/02/29 07:01:25;;;;;;;3.22;2.95;;;4.90;99.90;;;;;;5053600;28;20231;-82
2024/02/29 07:03:52;;;;;;;17.98;8.13;;;5.00;99.90;;;;;;5052651;28;20243;-81
2024/02/29 07:06:20;;;;;;;4.05;3.75;;;5.00;99.90;;;;;;5043547;28;20205;-80
2024/02/29 07:08:47;;;;;;;2.58;2.47;;;4.90;99.90;;;;;;5049230;28;20200;-81
2024/02/29 07:11:14;;;;;;;9.88;5.57;;;4.90;99.90;;;;;;5054084;28;20289;-81
2024/02/29 07:13:41;;;;;;;3.95;3.35;;;5.00;99.90;;;;;;5057860;28;20220;-81
2024/02/29 07:16:09;;;;;;;6.25;5.32;;;5.00;99.90;;;;;;5046336;28;20217;-82
2024/02/29 07:18:36;;;;;;;54.97;7.70;;;5.00;99.90;;;;;;5041001;28;20219;-82
2024/02/29 07:21:04;;;;;;;3.58;3.38;;;5.00;99.90;;;;;;5053201;28;20271;-82
2024/02/29 07:23:35;;;;;;;3.65;3.42;;;5.00;99.90;;;;;;5035355;28;20279;-80
2024/02/29 07:26:03;;;;;;;14.52;7.82;;;5.00;99.90;;;;;;5040455;28;20296;-83
2024/02/29 07:28:31;;;;;;;14.25;6.75;;;4.90;99.90;;;;;;5042244;28;20243;-83
2024/02/29 07:31:01;;;;;;;4.00;2.90;;;5.10;99.90;;;;;;5040491;28;20239;-79
2024/02/29 07:33:28;;;;;;;1.38;1.38;;;5.10;99.90;;;;;;5041251;28;20208;-79
2024/02/29 07:35:55;;;;;;;4.30;4.00;;;5.10;99.90;;;;;;5053731;28;20267;-79
2024/02/29 07:38:22;;;;;;;7.28;5.50;;;5.20;99.90;;;;;;5044018;28;20225;-80
2024/02/29 07:40:52;;;;;;;7.40;5.25;;;5.10;99.90;;;;;;5040876;28;20208;-81
2024/02/29 07:43:19;;;;;;;8.52;6.38;;;5.20;99.90;;;;;;5039154;28;20204;-80
2024/02/29 07:45:46;;;;;;;0.85;0.85;;;5.30;99.90;;;;;;5047852;28;20339;-81
2024/02/29 07:48:14;;;;;;;5.57;5.13;;;5.40;99.90;;;;;;5042305;28;20514;-79
2024/02/29 07:50:41;;;;;;;8.40;6.55;;;5.40;99.90;;;;;;5030099;28;20255;-79
2024/02/29 07:53:08;;;;;;;9.95;7.70;;;5.40;99.90;;;;;;5043182;28;20208;-80
2024/02/29 07:55:36;;;;;;;10.05;5.80;;;5.50;99.90;;;;;;5038297;28;20264;-79
2024/02/29 07:58:06;;;;;;;4.25;3.90;;;5.40;99.90;;;;;;5041492;28;20252;-80
2024/02/29 08:00:34;;;;;;;1.83;1.73;;;5.50;99.90;;;;;;5040449;28;20215;-79
2024/02/29 08:03:01;;;;;;;9.20;5.47;;;5.60;99.90;;;;;;5045028;28;20407;-81
2024/02/29 08:05:29;;;;;;;6.78;6.38;;;5.50;99.90;;;;;;5053603;28;20204;-81
2024/02/29 08:07:56;;;;;;;4.35;3.30;;;5.40;99.90;;;;;;5033918;28;20209;-82
2024/02/29 08:10:23;;;;;;;14.57;6.47;;;5.60;99.90;;;;;;5058920;28;20212;-81
2024/02/29 08:12:50;;;;;;;4.07;3.78;;;5.60;99.90;;;;;;5042577;28;20514;-81
2024/02/29 08:15:17;;;;;;;9.32;7.07;;;5.60;99.90;;;;;;5049559;28;20242;-82
2024/02/29 08:17:44;;;;;;;3.08;2.85;;;5.60;99.90;;;;;;5032456;28;20464;-81
2024/02/29 08:20:11;;;;;;;2.67;2.47;;;5.60;99.90;;;;;;5043062;28;20384;-81
2024/02/29 08:22:39;;;;;;;8.13;6.38;;;5.60;99.90;;;;;;5046256;28;20213;-77
2024/02/29 08:25:08;;;;;;;6.75;6.15;;;5.80;99.90;;;;;;5057510;28;20241;-80
2024/02/29 08:27:35;;;;;;;6.43;5.90;;;5.60;99.90;;;;;;5046156;28;20275;-79
2024/02/29 08:30:03;;;;;;;24.35;10.43;;;5.60;99.90;;;;;;5032517;28;20209;-79
2024/02/29 08:32:30;;;;;;;4.50;3.95;;;5.60;99.90;;;;;;5033863;28;20451;-81
2024/02/29 08:34:58;;;;;;;5.88;5.47;;;5.70;99.90;;;;;;5054718;28;20208;-82
2024/02/29 08:37:25;;;;;;;5.72;5.10;;;5.90;99.90;;;;;;5043573;28;20229;-80
2024/02/29 08:39:54;;;;;;;5.00;4.55;;;6.10;99.90;;;;;;5031804;28;20203;-79
2024/02/29 08:42:24;;;;;;;8.40;6.28;;;6.10;99.90;;;;;;5034792;28;20294;-81
2024/02/29 08:44:51;;;;;;;5.20;4.75;;;6.10;99.90;;;;;;5035172;28;20663;-79
2024/02/29 08:47:18;;;;;;;2.70;2.50;;;6.30;99.90;;;;;;5045108;28;20230;-79
2024/02/29 08:49:45;;;;;;;5.07;4.70;;;6.00;99.90;;;;;;5044955;28;20248;-80
2024/02/29 08:52:12;;;;;;;11.27;8.65;;;6.20;99.90;;;;;;5042108;28;20281;-82
2024/02/29 08:54:39;;;;;;;19.52;8.63;;;6.40;99.90;;;;;;5034280;28;20255;-78
2024/02/29 08:57:07;;;;;;;5.10;4.80;;;6.10;99.90;;;;;;5048733;28;20516;-80
2024/02/29 08:59:34;;;;;;;4.13;3.92;;;6.20;99.90;;;;;;5051074;28;20235;-79
2024/02/29 09:02:02;;;;;;;6.90;4.20;;;6.30;99.90;;;;;;5049637;28;20493;-79
2024/02/29 09:04:29;;;;;;;14.13;10.68;;;6.10;99.90;;;;;;5048066;28;20279;-80
2024/02/29 09:06:57;;;;;;;4.03;3.72;;;6.30;99.90;;;;;;5048275;28;20222;-79
2024/02/29 09:09:24;;;;;;;5.80;5.32;;;6.30;99.90;;;;;;5043880;28;20237;-81
2024/02/29 09:11:51;;;;;;;6.70;6.25;;;6.20;99.90;;;;;;5057449;28;20299;-81
2024/02/29 09:14:19;;;;;;;4.15;3.78;;;6.40;99.90;;;;;;5046457;28;20196;-80
2024/02/29 09:16:46;;;;;;;5.07;3.95;;;6.80;99.90;;;;;;5060254;28;20714;-79
2024/02/29 09:19:13;;;;;;;12.68;8.23;;;6.70;99.90;;;;;;5056294;28;20245;-83
2024/02/29 09:21:42;;;;;;;13.38;10.15;;;6.70;99.90;;;;;;5035470;28;20222;-79
2024/02/29 09:24:09;;;;;;;5.55;5.25;;;6.60;99.90;;;;;;5032166;28;20280;-79
2024/02/29 09:26:41;;;;;;;6.80;6.22;;;6.60;99.90;;;;;;5030260;28;20413;-80
2024/02/29 09:29:10;;;;;;;5.53;5.10;;;6.80;99.90;;;;;;5040479;28;20211;-80
2024/02/29 09:31:37;;;;;;;7.97;7.47;;;6.70;99.90;;;;;;5041976;28;20232;-80
2024/02/29 09:34:04;;;;;;;4.20;3.83;;;6.80;99.90;;;;;;5049534;28;20223;-80
2024/02/29 09:36:31;;;;;;;11.25;4.75;;;6.70;99.90;;;;;;5046831;28;20272;-81
2024/02/29 09:39:04;;;;;;;2.63;2.53;;;6.70;99.90;;;;;;5049193;28;20200;-81
2024/02/29 09:41:32;;;;;;;4.22;4.03;;;6.80;99.90;;;;;;5050436;28;20235;-81
2024/02/29 09:44:07;;;;;;;4.00;3.70;;;7.00;99.90;;;;;;5032557;28;20204;-79
2024/02/29 09:46:34;;;;;;;2.60;2.50;;;6.70;99.90;;;;;;5050762;28;20243;-83
2024/02/29 09:49:04;;;;;;;13.18;5.18;;;6.70;99.90;;;;;;5052504;28;20208;-80
2024/02/29 09:51:31;;;;;;;4.80;4.45;;;6.80;99.90;;;;;;5049596;28;20324;-79
2024/02/29 09:54:01;;;;;;;1.60;1.55;;;6.60;99.90;;;;;;5033604;28;20215;-81
2024/02/29 09:56:35;;;;;;;4.75;4.30;;;6.80;99.90;;;;;;5040864;28;20196;-79
2024/02/29 09:59:03;;;;;;;9.32;8.55;;;7.10;99.90;;;;;;5044281;28;20436;-78
2024/02/29 10:01:30;;;;;;;4.25;4.05;;;7.00;99.90;;;;;;5038867;28;20239;-81
2024/02/29 10:03:59;;;;;;;3.58;2.80;;;6.90;99.90;;;;;;5032097;28;20207;-80
2024/02/29 10:06:26;;;;;;;2.85;2.47;;;7.10;99.90;;;;;;5055057;28;20212;-80
2024/02/29 10:08:54;;;;;;;4.03;3.83;;;7.20;99.90;;;;;;5041909;28;20232;-80
2024/02/29 10:11:27;;;;;;;0.63;0.63;;;7.30;99.90;;;;;;5039758;28;20292;-78
2024/02/29 10:13:54;;;;;;;8.00;7.20;;;7.00;99.90;;;;;;5033953;28;20200;-79
2024/02/29 10:16:22;;;;;;;3.75;3.50;;;7.00;99.90;;;;;;5035599;28;20267;-81
2024/02/29 10:18:52;;;;;;;3.25;3.13;;;7.10;99.90;;;;;;5037770;28;20246;-81
2024/02/29 10:21:20;;;;;;;3.88;3.78;;;7.20;99.90;;;;;;5052253;28;20430;-80
2024/02/29 10:23:46;;;;;;;6.60;5.97;;;7.30;99.90;;;;;;5050939;28;20224;-78
2024/02/29 10:26:15;;;;;;;5.55;5.25;;;7.60;99.90;;;;;;5051035;28;20231;-81
2024/02/29 10:28:42;;;;;;;3.80;3.47;;;7.50;99.90;;;;;;5057646;28;20208;-80
2024/02/29 10:31:08;;;;;;;2.65;2.55;;;7.40;99.90;;;;;;5049392;28;20215;-79
2024/02/29 10:33:37;;;;;;;4.70;4.32;;;7.40;99.90;;;;;;5043596;28;20211;-82
2024/02/29 10:36:11;;;;;;;3.70;3.60;;;7.70;99.90;;;;;;5039026;28;20216;-81
2024/02/29 10:38:38;;;;;;;1.35;1.35;;;7.80;99.90;;;;;;5041295;28;20239;-79
2024/02/29 10:41:08;;;;;;;27.27;5.40;;;7.70;99.90;;;;;;5049490;28;20460;-79
2024/02/29 10:43:37;;;;;;;2.90;2.70;;;7.80;99.90;;;;;;5040535;28;20267;-79
2024/02/29 10:46:06;;;;;;;2.88;2.67;;;8.00;99.90;;;;;;5058594;28;20632;-80
2024/02/29 10:48:40;;;;;;;4.05;3.80;;;8.00;99.90;;;;;;5045683;28;20561;-81
2024/02/29 10:51:47;;;;;;;2.13;2.03;;;8.00;99.90;;;;;;5048119;28;20627;-81
2024/02/29 10:54:25;;;;;;;2.67;2.58;;;8.20;99.90;;;;;;5034087;28;20204;-81
2024/02/29 10:56:54;;;;;;;5.28;4.38;;;8.80;99.90;;;;;;5043142;28;20453;-82
2024/02/29 10:59:23;;;;;;;2.15;2.05;;;8.30;99.90;;;;;;5051067;28;20223;-78
2024/02/29 11:01:57;;;;;;;1.00;1.00;;;8.10;99.90;;;;;;5050563;28;20465;-83
2024/02/29 11:04:25;;;;;;;1.15;1.15;;;8.20;99.90;;;;;;5075192;28;20184;-85
2024/02/29 11:06:53;;;;;;;1.95;1.85;;;8.30;99.90;;;;;;5063726;28;20230;-85
2024/02/29 11:09:23;;;;;;;3.38;3.17;;;8.50;99.90;;;;;;5040425;28;20201;-80
2024/02/29 11:12:26;;;;;;;2.13;2.03;;;8.30;99.90;;;;;;5043300;28;20287;-81
2024/02/29 11:14:57;;;;;;;5.55;5.20;;;8.40;99.90;;;;;;5030689;28;20212;-80
2024/02/29 11:17:29;;;;;;;1.67;1.58;;;7.90;99.90;;;;;;5044424;28;20204;-82
2024/02/29 11:19:57;;;;;;;1.55;1.55;;;8.20;99.90;;;;;;5047964;28;20393;-81
2024/02/29 11:22:32;;;;;;;6.18;5.60;;;8.10;99.90;;;;;;5043697;28;20208;-81
2024/02/29 11:25:09;;;;;;;2.15;2.05;;;8.10;99.90;;;;;;5045030;28;20504;-81
2024/02/29 11:27:45;;;;;;;2.35;2.25;;;8.00;99.90;;;;;;5039674;28;20215;-81
2024/02/29 11:30:17;;;;;;;2.25;2.15;;;7.90;99.90;;;;;;5048835;28;20209;-81
2024/02/29 11:32:45;;;;;;;6.45;2.08;;;7.90;99.90;;;;;;5046837;28;20280;-79
2024/02/29 11:35:14;;;;;;;4.30;4.00;;;7.80;99.90;;;;;;5040452;28;20568;-81
2024/02/29 11:37:44;;;;;;;1.90;1.80;;;8.10;99.90;;;;;;5040901;28;20204;-82
2024/02/29 11:40:15;;;;;;;9.73;4.53;;;8.00;99.90;;;;;;5040582;28;20213;-82
2024/02/29 11:42:43;;;;;;;2.45;2.25;;;8.20;99.90;;;;;;5039782;28;20279;-80
2024/02/29 11:45:23;;;;;;;4.63;4.32;;;8.20;99.90;;;;;;5048117;28;20196;-81
2024/02/29 11:47:50;;;;;;;2.65;2.55;;;8.40;99.90;;;;;;5061034;28;20199;-81
2024/02/29 11:50:17;;;;;;;3.53;3.33;;;8.40;99.90;;;;;;5043116;28;20235;-80
2024/02/29 11:52:44;;;;;;;1.95;1.75;;;8.30;99.90;;;;;;5052001;28;20223;-81
2024/02/29 11:55:12;;;;;;;3.10;3.00;;;8.50;99.90;;;;;;5050892;28;20196;-81
2024/02/29 11:57:41;;;;;;;6.97;6.47;;;8.80;99.90;;;;;;5046298;28;20212;-82
2024/02/29 12:00:09;;;;;;;4.10;3.90;;;8.90;99.90;;;;;;5058476;28;20279;-80
2024/02/29 12:02:39;;;;;;;6.05;5.63;;;8.60;99.90;;;;;;5047395;28;20222;-81
2024/02/29 12:05:06;;;;;;;3.65;3.45;;;8.80;99.90;;;;;;5048949;28;20251;-81
2024/02/29 12:07:33;;;;;;;2.97;2.85;;;8.90;99.90;;;;;;5056458;28;20209;-81
2024/02/29 12:10:01;;;;;;;4.93;4.53;;;9.20;99.90;;;;;;5060518;28;20191;-84
2024/02/29 12:12:29;;;;;;;3.22;3.13;;;9.00;99.90;;;;;;5053895;28;20220;-84
2024/02/29 12:14:57;;;;;;;6.53;6.20;;;8.70;99.90;;;;;;5061282;28;20231;-84
2024/02/29 12:17:26;;;;;;;3.13;2.17;;;8.90;99.90;;;;;;5062276;28;20330;-84
2024/02/29 12:19:55;;;;;;;22.08;4.05;;;9.00;99.90;;;;;;5054764;28;20204;-82
2024/02/29 12:22:23;;;;;;;3.10;2.90;;;9.30;99.90;;;;;;5057587;28;20208;-80
2024/02/29 12:24:50;;;;;;;5.07;4.80;;;9.20;99.90;;;;;;5051270;28;20200;-83
2024/02/29 12:27:19;;;;;;;6.38;5.95;;;9.20;99.90;;;;;;5052293;28;20194;-83
2024/02/29 12:29:47;;;;;;;2.47;2.35;;;9.10;99.90;;;;;;5048699;28;20223;-80
2024/02/29 12:32:14;;;;;;;3.58;3.33;;;9.00;99.90;;;;;;5049924;28;20576;-80
2024/02/29 12:34:42;;;;;;;0.95;0.95;;;9.00;99.90;;;;;;5044064;28;20280;-80
2024/02/29 12:37:12;;;;;;;4.65;3.95;;;8.80;99.90;;;;;;5055381;28;20516;-80
2024/02/29 12:39:39;;;;;;;3.95;3.65;;;9.00;99.90;;;;;;5045376;28;20204;-82
2024/02/29 12:42:08;;;;;;;1.88;1.77;;;8.90;99.90;;;;;;5038845;28;20280;-82
2024/02/29 12:44:36;;;;;;;4.40;4.18;;;8.90;99.90;;;;;;5040756;28;20263;-82
2024/02/29 12:47:04;;;;;;;1.02;1.02;;;8.70;99.90;;;;;;5048097;28;20203;-82
2024/02/29 12:49:31;;;;;;;1.92;1.85;;;8.90;99.90;;;;;;5048347;28;20209;-80
2024/02/29 12:51:58;;;;;;;2.65;2.55;;;9.00;99.90;;;;;;5040214;28;20240;-79
2024/02/29 12:54:25;;;;;;;3.10;2.97;;;9.10;99.90;;;;;;5045619;28;20201;-79
2024/02/29 12:56:52;;;;;;;5.20;4.90;;;8.80;99.90;;;;;;5047237;28;20469;-78
2024/02/29 12:59:19;;;;;;;2.00;1.90;;;8.80;99.90;;;;;;5053117;28;20279;-81